Time;durP1;ratioP1;P1;durP2;ratioP2;P2;SDS_P1;SDS_P2;PMS_P1;PMS_P2;Temp;Humidity;BMP_temperature;BMP_pressure;BME280_temperature;BME280_humidity;BME280_pressure;Samples;Min_cycle;Max_cycle;Signal;HPM_P1;HPM_P2
2021/11/21 00:04:16;;;;;;;22.90;8.40;;;;;;;;;;10396002;28;20051;-67
2021/11/21 00:09:19;;;;;;;16.33;6.27;;;;;;;;;;10396536;28;20076;-68
2021/11/21 00:14:23;;;;;;;24.83;8.50;;;;;;;;;;10395954;28;20412;-68
2021/11/21 00:19:25;;;;;;;;;;;;;;;;;;10395087;28;20077;-68
2021/11/21 00:24:28;;;;;;;14.87;6.33;;;;;;;;;;10397102;28;20578;-68
2021/11/21 00:29:33;;;;;;;14.37;5.43;;;;;;;;;;10392511;28;20128;-68
2021/11/21 00:34:35;;;;;;;18.03;6.47;;;;;;;;;;10391363;28;20040;-67
2021/11/21 00:39:38;;;;;;;13.23;4.87;;;;;;;;;;10398289;28;20729;-69
2021/11/21 00:44:42;;;;;;;5.53;2.47;;;;;;;;;;10393774;28;20041;-69
2021/11/21 00:49:45;;;;;;;;;;;;;;;;;;10397765;28;20125;-69
2021/11/21 00:54:52;;;;;;;16.27;6.47;;;;;;;;;;10395839;28;19968;-68
2021/11/21 00:59:56;;;;;;;6.77;3.70;;;;;;;;;;10395292;28;20046;-69
2021/11/21 01:05:06;;;;;;;11.70;4.83;;;;;;;;;;10393576;28;20148;-69
2021/11/21 01:10:10;;;;;;;16.33;6.15;;;;;;;;;;10396384;28;20417;-70
2021/11/21 01:15:18;;;;;;;13.48;5.25;;;;;;;;;;10394573;28;20086;-69
2021/11/21 01:20:22;;;;;;;16.20;5.63;;;;;;;;;;10395273;28;20033;-69
2021/11/21 01:25:24;;;;;;;14.63;5.38;;;;;;;;;;10382094;28;21215;-68
2021/11/21 01:30:30;;;;;;;8.87;4.00;;;;;;;;;;10395383;28;20042;-68
2021/11/21 01:35:33;;;;;;;11.57;4.33;;;;;;;;;;10391415;28;20473;-69
2021/11/21 01:40:36;;;;;;;11.70;4.77;;;;;;;;;;10387282;28;20045;-70
2021/11/21 01:45:40;;;;;;;13.07;5.07;;;;;;;;;;10389222;28;20079;-69
2021/11/21 01:50:44;;;;;;;16.10;5.50;;;;;;;;;;10398402;28;20303;-69
2021/11/21 01:55:53;;;;;;;18.57;6.40;;;;;;;;;;10396576;28;20041;-70
2021/11/21 02:00:59;;;;;;;13.37;5.87;;;;;;;;;;10390839;28;20239;-70
2021/11/21 02:06:02;;;;;;;10.60;4.80;;;;;;;;;;10390670;28;20506;-69
2021/11/21 02:11:06;;;;;;;1.40;0.93;;;;;;;;;;10399993;28;20165;-70
2021/11/21 02:16:12;;;;;;;9.45;3.70;;;;;;;;;;10393241;28;20067;-70
2021/11/21 02:21:36;;;;;;;12.10;4.83;;;;;;;;;;10402454;28;20393;-68
2021/11/21 02:26:40;;;;;;;9.70;3.73;;;;;;;;;;10416865;28;20038;-69
2021/11/21 02:32:03;;;;;;;10.80;5.20;;;;;;;;;;10405596;28;20486;-70
2021/11/21 02:37:28;;;;;;;8.00;3.63;;;;;;;;;;10406115;28;20048;-70
2021/11/21 02:42:30;;;;;;;;;;;;;;;;;;10405125;28;20037;-71
2021/11/21 02:47:34;;;;;;;3.77;1.70;;;;;;;;;;10402802;28;19928;-70
2021/11/21 02:52:38;;;;;;;11.55;4.00;;;;;;;;;;10403640;28;20038;-70
2021/11/21 02:57:40;;;;;;;;;;;;;;;;;;10399330;28;20474;-71
2021/11/21 03:02:44;;;;;;;11.00;3.73;;;;;;;;;;10395966;28;19944;-69
2021/11/21 03:07:49;;;;;;;10.68;3.83;;;;;;;;;;10392341;28;20057;-71
2021/11/21 03:12:54;;;;;;;8.63;3.77;;;;;;;;;;10401605;28;20474;-72
2021/11/21 03:17:56;;;;;;;6.07;3.20;;;;;;;;;;10396091;28;20169;-70
2021/11/21 03:23:00;;;;;;;10.60;4.20;;;;;;;;;;10400993;28;20110;-71
2021/11/21 03:28:04;;;;;;;8.90;3.73;;;;;;;;;;10391559;28;20474;-71
2021/11/21 03:33:07;;;;;;;7.80;3.23;;;;;;;;;;10419860;28;20033;-71
2021/11/21 03:38:11;;;;;;;8.13;3.83;;;;;;;;;;10419778;28;20140;-71
2021/11/21 03:43:13;;;;;;;;;;;;;;;;;;10423551;28;20401;-68
2021/11/21 03:48:16;;;;;;;8.10;3.23;;;;;;;;;;10419178;28;19971;-69
2021/11/21 03:53:20;;;;;;;7.93;2.83;;;;;;;;;;10398938;28;20115;-67
2021/11/21 03:58:23;;;;;;;7.33;3.17;;;;;;;;;;10405503;28;20118;-68
2021/11/21 04:03:26;;;;;;;10.80;3.73;;;;;;;;;;10385888;28;20118;-69
2021/11/21 04:08:30;;;;;;;7.63;3.33;;;;;;;;;;10389862;28;20111;-67
2021/11/21 04:13:33;;;;;;;;;;;;;;;;;;10386488;28;20042;-68
2021/11/21 04:18:55;;;;;;;6.10;2.77;;;;;;;;;;10396935;28;19921;-69
2021/11/21 04:24:00;;;;;;;6.67;2.43;;;;;;;;;;10391970;28;20502;-69
2021/11/21 04:29:03;;;;;;;;;;;;;;;;;;10399446;28;20436;-70
2021/11/21 04:34:06;;;;;;;1.77;1.30;;;;;;;;;;10386238;28;20391;-71
2021/11/21 04:39:10;;;;;;;5.37;2.60;;;;;;;;;;10403645;28;20552;-70
2021/11/21 04:44:12;;;;;;;;;;;;;;;;;;10386102;28;20453;-69
2021/11/21 04:49:15;;;;;;;3.77;1.87;;;;;;;;;;10388690;28;19921;-69
2021/11/21 04:54:22;;;;;;;8.60;3.20;;;;;;;;;;10390716;28;20477;-70
2021/11/21 04:59:24;;;;;;;8.47;3.50;;;;;;;;;;10395357;28;20049;-69
2021/11/21 05:04:27;;;;;;;11.23;3.63;;;;;;;;;;10386496;28;20042;-71
2021/11/21 05:09:31;;;;;;;9.87;4.10;;;;;;;;;;10394662;28;20514;-71
2021/11/21 05:14:34;;;;;;;;;;;;;;;;;;10394066;28;20418;-70
2021/11/21 05:19:37;;;;;;;6.33;3.07;;;;;;;;;;10389855;28;19964;-70
2021/11/21 05:24:41;;;;;;;8.90;3.23;;;;;;;;;;10391372;28;20128;-70
2021/11/21 05:29:43;;;;;;;;;;;;;;;;;;10405185;28;20478;-70
2021/11/21 05:34:46;;;;;;;7.33;3.00;;;;;;;;;;10392601;28;20011;-69
2021/11/21 05:39:50;;;;;;;7.03;3.17;;;;;;;;;;10398126;28;20045;-68
2021/11/21 05:44:53;;;;;;;;;;;;;;;;;;10389704;28;20038;-69
2021/11/21 05:49:55;;;;;;;5.10;1.50;;;;;;;;;;10389978;28;19921;-70
2021/11/21 05:54:59;;;;;;;5.97;2.53;;;;;;;;;;10390759;28;20045;-70
2021/11/21 06:00:02;;;;;;;;;;;;;;;;;;10392564;28;20045;-70
2021/11/21 06:05:05;;;;;;;4.87;2.90;;;;;;;;;;10383026;28;20330;-70
2021/11/21 06:10:10;;;;;;;6.57;3.07;;;;;;;;;;10389322;28;20068;-68
2021/11/21 06:15:13;;;;;;;5.90;2.80;;;;;;;;;;10393273;28;20353;-69
2021/11/21 06:20:16;;;;;;;6.63;2.90;;;;;;;;;;10398458;28;20049;-68
2021/11/21 06:25:20;;;;;;;5.10;2.77;;;;;;;;;;10392685;28;20037;-68
2021/11/21 06:30:23;;;;;;;;;;;;;;;;;;10395540;28;20033;-67
2021/11/21 06:35:25;;;;;;;5.07;2.70;;;;;;;;;;10401654;28;20298;-69
2021/11/21 06:40:30;;;;;;;7.83;2.77;;;;;;;;;;10403678;28;20058;-69
2021/11/21 06:45:33;;;;;;;6.70;3.07;;;;;;;;;;10399538;28;20525;-69
2021/11/21 06:50:36;;;;;;;6.37;3.00;;;;;;;;;;10398917;28;20045;-71
2021/11/21 06:55:42;;;;;;;3.37;1.60;;;;;;;;;;10404930;28;20034;-71
2021/11/21 07:00:45;;;;;;;8.43;3.20;;;;;;;;;;10392260;28;20042;-69
2021/11/21 07:05:48;;;;;;;3.93;1.77;;;;;;;;;;10407394;28;20155;-67
2021/11/21 07:10:52;;;;;;;7.37;2.67;;;;;;;;;;10405208;28;20041;-70
2021/11/21 07:15:55;;;;;;;;;;;;;;;;;;10404844;28;20038;-70
2021/11/21 07:20:58;;;;;;;4.95;2.80;;;;;;;;;;10409042;28;20292;-70
2021/11/21 07:26:02;;;;;;;4.90;2.78;;;;;;;;;;10400300;28;20111;-68
2021/11/21 07:31:05;;;;;;;4.93;3.05;;;;;;;;;;10400947;28;20038;-69
2021/11/21 07:36:08;;;;;;;7.10;3.50;;;;;;;;;;10411623;28;20132;-71
2021/11/21 07:41:12;;;;;;;6.07;3.60;;;;;;;;;;10401850;28;20115;-69
2021/11/21 07:46:15;;;;;;;5.97;3.20;;;;;;;;;;10412423;28;20067;-69
2021/11/21 07:51:18;;;;;;;5.50;3.23;;;;;;;;;;10406961;28;20045;-70
2021/11/21 07:56:22;;;;;;;4.73;3.20;;;;;;;;;;10406246;28;20055;-70
2021/11/21 08:01:25;;;;;;;4.68;3.47;;;;;;;;;;10403884;28;20477;-70
2021/11/21 08:06:28;;;;;;;10.85;6.30;;;;;;;;;;10391413;28;20034;-68
2021/11/21 08:11:32;;;;;;;5.97;3.95;;;;;;;;;;10399344;28;20061;-69
2021/11/21 08:16:35;;;;;;;4.80;3.75;;;;;;;;;;10410655;28;20057;-70
2021/11/21 08:21:38;;;;;;;10.38;6.95;;;;;;;;;;10396926;28;20037;-70
2021/11/21 08:26:43;;;;;;;5.65;4.00;;;;;;;;;;10397843;28;20109;-69
2021/11/21 08:31:47;;;;;;;5.18;4.10;;;;;;;;;;10404203;28;20046;-68
2021/11/21 08:36:50;;;;;;;5.63;4.07;;;;;;;;;;10409162;28;20044;-69
2021/11/21 08:41:55;;;;;;;5.30;4.20;;;;;;;;;;10408093;28;20038;-71
2021/11/21 08:46:57;;;;;;;5.10;4.10;;;;;;;;;;10398761;28;20540;-71
2021/11/21 08:52:00;;;;;;;5.90;4.60;;;;;;;;;;10407393;28;20486;-69
2021/11/21 08:57:05;;;;;;;5.47;3.90;;;;;;;;;;10399796;28;20033;-68
2021/11/21 09:02:08;;;;;;;6.00;4.35;;;;;;;;;;10407388;28;20038;-69
2021/11/21 09:07:12;;;;;;;6.05;4.57;;;;;;;;;;10405720;28;20042;-70
2021/11/21 09:12:16;;;;;;;6.15;4.45;;;;;;;;;;10403002;28;20049;-70
2021/11/21 09:17:19;;;;;;;5.90;4.43;;;;;;;;;;10404728;28;20505;-69
2021/11/21 09:22:22;;;;;;;5.63;4.13;;;;;;;;;;10400434;28;20447;-68
2021/11/21 09:27:26;;;;;;;5.93;4.22;;;;;;;;;;10404559;28;20041;-71
2021/11/21 09:32:29;;;;;;;4.75;4.00;;;;;;;;;;10403753;28;20105;-68
2021/11/21 09:37:31;;;;;;;5.60;4.15;;;;;;;;;;10399342;28;20547;-69
2021/11/21 09:42:36;;;;;;;5.18;4.03;;;;;;;;;;10406798;28;20041;-69
2021/11/21 09:47:39;;;;;;;5.32;4.10;;;;;;;;;;10400515;28;20041;-69
2021/11/21 09:52:42;;;;;;;5.53;4.65;;;;;;;;;;10406371;28;20406;-69
2021/11/21 09:57:47;;;;;;;5.55;4.40;;;;;;;;;;10400288;28;20037;-67
2021/11/21 10:02:50;;;;;;;5.25;4.60;;;;;;;;;;10413796;28;20437;-69
2021/11/21 10:08:02;;;;;;;5.90;4.90;;;;;;;;;;10408416;28;20486;-70
2021/11/21 10:13:21;;;;;;;6.45;4.53;;;;;;;;;;10405639;28;20369;-69
2021/11/21 10:18:24;;;;;;;5.82;4.85;;;;;;;;;;10406756;28;20029;-69
2021/11/21 10:23:26;;;;;;;7.63;6.32;;;;;;;;;;10395965;28;20133;-69
2021/11/21 10:28:31;;;;;;;6.88;5.70;;;;;;;;;;10395348;28;20073;-69
2021/11/21 10:33:36;;;;;;;5.65;4.60;;;;;;;;;;10399930;28;20638;-68
2021/11/21 10:38:40;;;;;;;5.78;4.55;;;;;;;;;;10397715;28;20122;-69
2021/11/21 10:43:46;;;;;;;6.85;4.90;;;;;;;;;;10407793;28;20256;-68
2021/11/21 10:48:49;;;;;;;6.15;4.38;;;;;;;;;;10410806;28;20438;-68
2021/11/21 10:53:52;;;;;;;7.22;5.15;;;;;;;;;;10402713;28;20049;-70
2021/11/21 10:58:57;;;;;;;6.85;5.80;;;;;;;;;;10410587;28;20042;-68
2021/11/21 11:04:10;;;;;;;6.93;5.57;;;;;;;;;;10421590;28;20088;-71
2021/11/21 11:09:21;;;;;;;6.78;5.53;;;;;;;;;;10411275;28;20033;-68
2021/11/21 11:14:25;;;;;;;7.07;5.45;;;;;;;;;;10410626;28;20528;-70
2021/11/21 11:19:29;;;;;;;6.80;5.40;;;;;;;;;;10404754;28;20099;-69
2021/11/21 11:24:32;;;;;;;7.13;6.13;;;;;;;;;;10418993;28;20350;-68
2021/11/21 11:29:38;;;;;;;7.13;6.07;;;;;;;;;;10406778;28;20041;-70
2021/11/21 11:34:40;;;;;;;7.95;6.57;;;;;;;;;;10399508;28;20451;-69
2021/11/21 11:39:45;;;;;;;9.18;6.53;;;;;;;;;;10408796;28;20050;-70
2021/11/21 11:44:56;;;;;;;8.95;7.10;;;;;;;;;;10402526;28;20101;-70
2021/11/21 11:49:59;;;;;;;9.85;7.18;;;;;;;;;;10409163;28;20038;-70
2021/11/21 11:55:08;;;;;;;11.65;9.10;;;;;;;;;;10407306;28;20045;-69
2021/11/21 12:00:26;;;;;;;9.77;7.90;;;;;;;;;;10395245;28;20053;-68
2021/11/21 12:05:33;;;;;;;11.32;7.53;;;;;;;;;;10413058;28;20439;-68
2021/11/21 12:10:44;;;;;;;12.90;8.30;;;;;;;;;;10403849;28;20090;-67
2021/11/21 12:15:51;;;;;;;11.80;8.00;;;;;;;;;;10406860;28;20064;-69
2021/11/21 12:20:56;;;;;;;12.85;8.00;;;;;;;;;;10402273;28;20524;-70
2021/11/21 12:26:13;;;;;;;14.35;8.10;;;;;;;;;;10398627;28;20038;-65
2021/11/21 12:31:29;;;;;;;13.82;7.15;;;;;;;;;;10410134;28;20053;-65
2021/11/21 12:36:47;;;;;;;12.85;7.13;;;;;;;;;;10399999;28;20033;-66
2021/11/21 12:42:02;;;;;;;13.77;7.13;;;;;;;;;;10404277;28;20095;-66
2021/11/21 12:47:07;;;;;;;14.18;7.25;;;;;;;;;;10400550;28;20104;-65
2021/11/21 12:52:11;;;;;;;14.77;7.00;;;;;;;;;;10401013;28;20587;-64
2021/11/21 12:57:14;;;;;;;16.70;7.30;;;;;;;;;;10398975;28;20041;-69
2021/11/21 13:02:20;;;;;;;14.07;5.68;;;;;;;;;;10411992;28;20140;-69
2021/11/21 13:07:24;;;;;;;14.80;6.78;;;;;;;;;;10393155;28;20041;-69
2021/11/21 13:12:27;;;;;;;;;;;;;;;;;;10398142;28;20557;-69
2021/11/21 13:17:31;;;;;;;15.65;7.38;;;;;;;;;;10399192;28;20019;-70
2021/11/21 13:22:47;;;;;;;14.93;6.68;;;;;;;;;;10400596;28;20045;-68
2021/11/21 13:27:50;;;;;;;15.73;7.28;;;;;;;;;;10395113;28;20038;-70
2021/11/21 13:32:54;;;;;;;16.77;7.75;;;;;;;;;;10402753;28;20037;-70
2021/11/21 13:37:57;;;;;;;11.38;5.95;;;;;;;;;;10387708;28;20120;-69
2021/11/21 13:43:02;;;;;;;15.93;6.30;;;;;;;;;;10402703;28;20475;-68
2021/11/21 13:48:26;;;;;;;17.35;7.47;;;;;;;;;;10400248;28;20044;-69
2021/11/21 13:53:29;;;;;;;;;;;;;;;;;;10402065;28;20135;-69
2021/11/21 13:58:32;;;;;;;18.42;5.97;;;;;;;;;;10390630;28;20015;-68
2021/11/21 14:03:40;;;;;;;17.65;7.38;;;;;;;;;;10400093;28;20052;-69
2021/11/21 14:08:44;;;;;;;16.10;5.85;;;;;;;;;;10391300;28;20044;-69
2021/11/21 14:13:48;;;;;;;11.90;4.95;;;;;;;;;;10392164;28;20512;-70
2021/11/21 14:18:52;;;;;;;14.63;5.97;;;;;;;;;;10398655;28;20042;-68
2021/11/21 14:24:05;;;;;;;12.68;5.43;;;;;;;;;;10409087;28;20357;-68
2021/11/21 14:29:08;;;;;;;12.80;5.57;;;;;;;;;;10408201;28;20182;-68
2021/11/21 14:34:14;;;;;;;16.77;6.10;;;;;;;;;;10401455;28;20041;-69
2021/11/21 14:39:28;;;;;;;15.00;6.63;;;;;;;;;;10396938;28;20511;-69
2021/11/21 14:44:31;;;;;;;16.73;6.03;;;;;;;;;;10393478;28;20195;-71
2021/11/21 14:49:37;;;;;;;15.60;6.28;;;;;;;;;;10374919;28;20045;-71
2021/11/21 14:54:41;;;;;;;16.77;5.40;;;;;;;;;;10406884;28;20088;-71
2021/11/21 14:59:44;;;;;;;11.95;5.15;;;;;;;;;;10397582;28;20275;-70
2021/11/21 15:04:48;;;;;;;18.00;6.43;;;;;;;;;;10400052;28;20095;-70
2021/11/21 15:09:51;;;;;;;;;;;;;;;;;;10391780;28;20057;-68
2021/11/21 15:14:53;;;;;;;14.25;5.53;;;;;;;;;;10403455;28;20294;-71
2021/11/21 15:19:58;;;;;;;18.90;6.32;;;;;;;;;;10402320;28;20069;-69
2021/11/21 15:25:01;;;;;;;14.95;5.82;;;;;;;;;;10401098;28;20049;-70
2021/11/21 15:30:04;;;;;;;22.55;7.63;;;;;;;;;;10412092;28;20142;-70
2021/11/21 15:35:08;;;;;;;20.67;7.43;;;;;;;;;;10408040;28;20071;-70
2021/11/21 15:40:12;;;;;;;20.98;6.35;;;;;;;;;;10396996;28;20053;-70
2021/11/21 15:45:15;;;;;;;15.07;5.72;;;;;;;;;;10407612;28;20048;-68
2021/11/21 15:50:20;;;;;;;14.63;5.53;;;;;;;;;;10403329;28;20041;-69
2021/11/21 15:55:23;;;;;;;18.77;6.88;;;;;;;;;;10403633;28;20817;-69
2021/11/21 16:00:26;;;;;;;9.18;3.67;;;;;;;;;;10402910;28;20044;-67
2021/11/21 16:05:30;;;;;;;11.55;4.50;;;;;;;;;;10401576;28;20601;-69
2021/11/21 16:10:33;;;;;;;17.27;6.32;;;;;;;;;;10399802;28;20124;-70
2021/11/21 16:15:36;;;;;;;18.03;6.67;;;;;;;;;;10393504;28;20041;-69
2021/11/21 16:20:41;;;;;;;20.77;7.47;;;;;;;;;;10392613;28;20069;-69
2021/11/21 16:25:44;;;;;;;23.77;7.78;;;;;;;;;;10393661;28;20032;-67
2021/11/21 16:30:46;;;;;;;11.77;3.97;;;;;;;;;;10391583;28;20038;-68
2021/11/21 16:35:51;;;;;;;16.05;4.55;;;;;;;;;;10385994;28;20459;-70
2021/11/21 16:40:53;;;;;;;;;;;;;;;;;;10396775;28;20147;-69
2021/11/21 16:45:56;;;;;;;14.73;5.70;;;;;;;;;;10396797;28;19925;-69
2021/11/21 16:51:00;;;;;;;32.95;6.15;;;;;;;;;;10393375;28;20397;-70
2021/11/21 16:56:03;;;;;;;;;;;;;;;;;;10396877;28;20044;-70
2021/11/21 17:01:07;;;;;;;20.20;7.45;;;;;;;;;;10402075;28;19921;-71
2021/11/21 17:06:12;;;;;;;22.05;6.90;;;;;;;;;;10400605;28;20041;-70
2021/11/21 17:11:14;;;;;;;;;;;;;;;;;;10400810;28;20046;-69
2021/11/21 17:16:17;;;;;;;15.85;5.47;;;;;;;;;;10402520;28;20295;-70
2021/11/21 17:21:25;;;;;;;20.17;7.00;;;;;;;;;;10403085;28;20033;-70
2021/11/21 17:26:28;;;;;;;19.05;6.05;;;;;;;;;;10400357;28;20048;-71
2021/11/21 17:31:37;;;;;;;10.70;3.83;;;;;;;;;;10402644;28;20208;-72
2021/11/21 17:36:41;;;;;;;18.48;5.63;;;;;;;;;;10394730;28;20044;-72
2021/11/21 17:41:44;;;;;;;6.57;2.63;;;;;;;;;;10396426;28;20049;-70
2021/11/21 17:46:47;;;;;;;11.43;4.60;;;;;;;;;;10404092;28;20084;-72
2021/11/21 17:51:51;;;;;;;4.63;1.63;;;;;;;;;;10405710;28;20052;-71
2021/11/21 17:56:54;;;;;;;;;;;;;;;;;;10398911;28;20098;-71
2021/11/21 18:02:17;;;;;;;7.63;2.95;;;;;;;;;;10393219;28;19924;-71
2021/11/21 18:07:42;;;;;;;15.20;5.68;;;;;;;;;;10399659;28;20388;-71
2021/11/21 18:12:50;;;;;;;15.18;4.63;;;;;;;;;;10389595;28;20132;-69
2021/11/21 18:17:53;;;;;;;18.63;6.20;;;;;;;;;;10399318;28;20397;-72
2021/11/21 18:22:57;;;;;;;14.65;5.38;;;;;;;;;;10401704;28;20132;-72
2021/11/21 18:28:00;;;;;;;13.13;5.32;;;;;;;;;;10397351;28;20041;-71
2021/11/21 18:33:03;;;;;;;17.10;6.15;;;;;;;;;;10399182;28;20108;-71
2021/11/21 18:38:07;;;;;;;12.77;4.72;;;;;;;;;;10398981;28;20037;-68
2021/11/21 18:43:10;;;;;;;12.45;4.53;;;;;;;;;;10408541;28;20157;-69
2021/11/21 18:48:12;;;;;;;14.05;4.57;;;;;;;;;;10397909;28;20037;-70
2021/11/21 18:53:17;;;;;;;14.02;4.63;;;;;;;;;;10395378;28;20070;-72
2021/11/21 18:58:20;;;;;;;12.35;3.88;;;;;;;;;;10405325;28;20033;-71
2021/11/21 19:03:22;;;;;;;9.98;4.05;;;;;;;;;;10409484;28;20045;-71
2021/11/21 19:08:27;;;;;;;14.88;4.57;;;;;;;;;;10403623;28;20132;-70
2021/11/21 19:13:29;;;;;;;;;;;;;;;;;;10410217;28;20053;-71
2021/11/21 19:18:35;;;;;;;10.82;4.03;;;;;;;;;;10407341;28;20392;-71
2021/11/21 19:23:39;;;;;;;12.05;3.20;;;;;;;;;;10415955;28;20049;-71
2021/11/21 19:28:42;;;;;;;;;;;;;;;;;;10410822;28;20038;-69
2021/11/21 19:33:45;;;;;;;14.02;4.63;;;;;;;;;;10406484;28;20408;-71
2021/11/21 19:38:50;;;;;;;13.85;5.05;;;;;;;;;;10407668;28;20181;-72
2021/11/21 19:43:53;;;;;;;9.60;4.43;;;;;;;;;;10410380;28;20497;-72
2021/11/21 19:48:56;;;;;;;12.73;4.23;;;;;;;;;;10402187;28;20127;-71
2021/11/21 19:54:00;;;;;;;11.98;3.97;;;;;;;;;;10408562;28;20303;-69
2021/11/21 19:59:04;;;;;;;17.33;5.33;;;;;;;;;;10411294;28;20048;-71
2021/11/21 20:04:07;;;;;;;10.77;4.30;;;;;;;;;;10411570;28;20068;-70
2021/11/21 20:09:12;;;;;;;13.45;4.25;;;;;;;;;;10417036;28;20041;-71
2021/11/21 20:14:14;;;;;;;;;;;;;;;;;;10403502;28;20045;-72
2021/11/21 20:19:17;;;;;;;13.30;4.45;;;;;;;;;;10400189;28;19948;-70
2021/11/21 20:24:21;;;;;;;13.13;4.43;;;;;;;;;;10401345;28;20413;-69
2021/11/21 20:29:26;;;;;;;;;;;;;;;;;;10402216;28;20037;-70
2021/11/21 20:34:39;;;;;;;11.77;4.50;;;;;;;;;;10399914;28;19928;-70
2021/11/21 20:39:45;;;;;;;12.50;4.07;;;;;;;;;;10396773;28;20167;-71
2021/11/21 20:44:49;;;;;;;12.57;4.43;;;;;;;;;;10390789;28;20081;-72
2021/11/21 20:49:52;;;;;;;12.18;3.55;;;;;;;;;;10395593;28;20473;-70
2021/11/21 20:54:57;;;;;;;13.93;5.38;;;;;;;;;;10397681;28;20037;-71
2021/11/21 21:00:00;;;;;;;10.73;4.38;;;;;;;;;;10399646;28;20038;-70
2021/11/21 21:05:03;;;;;;;7.07;2.50;;;;;;;;;;10400942;28;20049;-71
2021/11/21 21:10:07;;;;;;;11.60;4.38;;;;;;;;;;10402769;28;20059;-70
2021/11/21 21:15:11;;;;;;;17.25;5.53;;;;;;;;;;10412536;28;20041;-70
2021/11/21 21:20:13;;;;;;;14.00;4.43;;;;;;;;;;10420893;28;20094;-71
2021/11/21 21:25:19;;;;;;;11.00;4.00;;;;;;;;;;10408779;28;20049;-69
2021/11/21 21:30:22;;;;;;;12.98;3.55;;;;;;;;;;10403754;28;20095;-72
2021/11/21 21:35:25;;;;;;;12.60;3.95;;;;;;;;;;10399861;28;20037;-70
2021/11/21 21:40:34;;;;;;;13.15;4.00;;;;;;;;;;10399959;28;20045;-71
2021/11/21 21:45:37;;;;;;;16.02;5.25;;;;;;;;;;10398252;28;20076;-69
2021/11/21 21:50:40;;;;;;;15.32;4.90;;;;;;;;;;10400711;28;20033;-70
2021/11/21 21:55:44;;;;;;;14.50;4.63;;;;;;;;;;10391623;28;20285;-70
2021/11/21 22:00:47;;;;;;;;;;;;;;;;;;10408530;28;20060;-71
2021/11/21 22:05:51;;;;;;;19.80;4.85;;;;;;;;;;10411107;28;19940;-70
2021/11/21 22:10:55;;;;;;;14.93;4.47;;;;;;;;;;10416763;28;20513;-71
2021/11/21 22:15:58;;;;;;;;;;;;;;;;;;10390538;28;20057;-70
2021/11/21 22:21:01;;;;;;;16.88;4.68;;;;;;;;;;10401254;28;20206;-69
2021/11/21 22:26:05;;;;;;;15.30;4.70;;;;;;;;;;10401263;28;20045;-71
2021/11/21 22:31:07;;;;;;;15.30;4.82;;;;;;;;;;10404146;28;20057;-69
2021/11/21 22:36:11;;;;;;;13.40;5.18;;;;;;;;;;10412528;28;20073;-71
2021/11/21 22:41:15;;;;;;;19.37;5.47;;;;;;;;;;10412714;28;20504;-71
2021/11/21 22:46:38;;;;;;;43.85;14.10;;;;;;;;;;10405340;28;20046;-70
2021/11/21 22:52:01;;;;;;;17.60;5.75;;;;;;;;;;10408328;28;20136;-71
2021/11/21 22:57:26;;;;;;;18.02;5.43;;;;;;;;;;10395728;28;20115;-70
2021/11/21 23:02:48;;;;;;;;;;;;;;;;;;10401498;28;20042;-69
2021/11/21 23:08:11;;;;;;;16.80;4.45;;;;;;;;;;10404994;28;19948;-69
2021/11/21 23:13:35;;;;;;;14.30;4.38;;;;;;;;;;10394225;28;20068;-70
2021/11/21 23:18:39;;;;;;;14.73;4.78;;;;;;;;;;10419233;28;20375;-71
2021/11/21 23:23:42;;;;;;;13.57;5.33;;;;;;;;;;10396735;28;20041;-69
2021/11/21 23:28:46;;;;;;;17.27;4.72;;;;;;;;;;10394007;28;20097;-68
2021/11/21 23:33:49;;;;;;;15.13;4.15;;;;;;;;;;10400939;28;20148;-72
2021/11/21 23:38:52;;;;;;;18.33;5.22;;;;;;;;;;10391027;28;20034;-71
2021/11/21 23:43:56;;;;;;;16.15;5.05;;;;;;;;;;10397960;28;20045;-70
2021/11/21 23:48:59;;;;;;;15.68;4.57;;;;;;;;;;10391325;28;20065;-71
2021/11/21 23:54:03;;;;;;;16.23;5.47;;;;;;;;;;10396124;28;20515;-70
2021/11/21 23:59:07;;;;;;;15.80;4.63;;;;;;;;;;10393616;28;20030;-70
